Time;durP1;ratioP1;P1;durP2;ratioP2;P2;SDS_P1;SDS_P2;PMS_P1;PMS_P2;Temp;Humidity;BMP_temperature;BMP_pressure;BME280_temperature;BME280_humidity;BME280_pressure;Samples;Min_cycle;Max_cycle;Signal;HPM_P1;HPM_P2
2021/06/14 00:00:53;;;;;;;15.82;6.78;;;;;;;12.99;72.03;101766.53;5084324;28;20058;-66
2021/06/14 00:03:21;;;;;;;16.50;6.30;;;;;;;12.84;72.91;101756.75;5096223;28;20052;-67
2021/06/14 00:05:48;;;;;;;15.02;7.38;;;;;;;12.83;73.54;101758.53;5093864;28;20072;-66
2021/06/14 00:08:19;;;;;;;15.07;6.40;;;;;;;12.99;72.59;101766.53;5089673;28;20564;-66
2021/06/14 00:10:49;;;;;;;20.70;6.75;;;;;;;12.99;72.52;101763.88;5070653;28;20257;-67
2021/06/14 00:13:17;;;;;;;17.52;7.18;;;;;;;13.06;72.80;101760.00;5093520;28;20051;-67
2021/06/14 00:15:46;;;;;;;14.82;6.38;;;;;;;12.95;73.32;101758.81;5057611;28;20055;-67
2021/06/14 00:18:14;;;;;;;13.82;7.35;;;;;;;12.95;73.10;101758.81;5087317;28;20056;-68
2021/06/14 00:20:51;;;;;;;15.38;6.80;;;;;;;12.90;73.35;101759.06;5056318;28;20055;-67
2021/06/14 00:23:20;;;;;;;14.40;6.80;;;;;;;12.78;73.67;101757.03;5087698;28;20048;-67
2021/06/14 00:25:48;;;;;;;15.20;7.22;;;;;;;12.72;74.24;101757.34;5092210;28;20056;-67
2021/06/14 00:28:17;;;;;;;13.43;6.78;;;;;;;12.74;74.15;101751.03;5100133;28;20040;-66
2021/06/14 00:30:45;;;;;;;12.90;6.93;;;;;;;13.01;73.32;101748.78;5065352;28;20105;-67
2021/06/14 00:33:15;;;;;;;14.05;6.57;;;;;;;12.91;73.77;101752.84;5086531;28;20185;-67
2021/06/14 00:35:45;;;;;;;13.32;7.07;;;;;;;12.63;74.52;101751.59;5076937;28;20071;-66
2021/06/14 00:38:13;;;;;;;14.40;7.07;;;;;;;12.50;75.14;101747.84;5090413;28;20442;-66
2021/06/14 00:40:41;;;;;;;17.23;7.65;;;;;;;12.48;75.54;101744.44;5082587;28;20048;-68
2021/06/14 00:43:10;;;;;;;16.17;7.13;;;;;;;12.46;75.49;101742.78;5072631;28;20499;-68
2021/06/14 00:45:42;;;;;;;12.63;6.25;;;;;;;12.70;75.04;101743.34;5094267;28;20124;-66
2021/06/14 00:48:10;;;;;;;19.58;8.07;;;;;;;12.72;74.99;101741.50;5072413;28;20052;-67
2021/06/14 00:50:55;;;;;;;14.23;7.30;;;;;;;12.51;75.27;101738.97;5070247;28;20048;-66
2021/06/14 00:53:31;;;;;;;14.15;6.20;;;;;;;12.32;75.92;101738.16;5072431;28;20066;-69
2021/06/14 00:56:07;;;;;;;18.98;8.15;;;;;;;12.19;76.46;101737.03;5063979;28;20130;-67
2021/06/14 00:58:36;;;;;;;16.15;6.53;;;;;;;12.09;76.75;101740.13;5075461;28;20052;-67
2021/06/14 01:01:04;;;;;;;13.13;6.63;;;;;;;12.04;76.85;101741.28;5086377;28;20040;-68
2021/06/14 01:03:32;;;;;;;12.57;6.53;;;;;;;12.26;77.24;101743.75;5102928;28;20361;-67
2021/06/14 01:06:02;;;;;;;16.30;7.53;;;;;;;12.45;76.39;101736.63;5085981;28;20411;-67
2021/06/14 01:08:31;;;;;;;15.38;6.72;;;;;;;12.48;76.45;101743.56;5090172;28;20429;-67
2021/06/14 01:11:06;;;;;;;13.13;6.70;;;;;;;12.29;76.49;101728.63;5085330;28;20461;-66
2021/06/14 01:13:44;;;;;;;14.70;7.13;;;;;;;12.39;77.21;101726.38;5083734;28;20092;-67
2021/06/14 01:16:24;;;;;;;13.32;6.90;;;;;;;12.23;77.50;101726.25;5088433;28;20048;-66
2021/06/14 01:19:20;;;;;;;14.25;7.53;;;;;;;12.35;77.29;101732.75;5072125;28;20122;-67
2021/06/14 01:22:24;;;;;;;18.17;6.78;;;;;;;12.48;76.48;101725.94;5098164;28;20848;-68
2021/06/14 01:25:10;;;;;;;15.25;7.60;;;;;;;12.41;76.79;101722.72;5096756;28;20039;-67
2021/06/14 01:27:53;;;;;;;18.55;7.07;;;;;;;12.15;77.31;101721.34;5074043;28;20151;-66
2021/06/14 01:30:22;;;;;;;20.55;7.68;;;;;;;12.21;77.73;101724.66;5099739;28;20059;-67
2021/06/14 01:32:50;;;;;;;16.02;7.57;;;;;;;12.09;77.85;101724.28;5065578;28;20469;-68
2021/06/14 01:35:23;;;;;;;17.45;7.40;;;;;;;11.94;78.46;101716.25;5069442;28;20051;-68
2021/06/14 01:37:53;;;;;;;21.17;7.82;;;;;;;12.19;78.49;101722.06;5090660;28;20051;-66
2021/06/14 01:40:22;;;;;;;17.17;7.70;;;;;;;12.33;77.66;101714.31;5068727;28;20275;-68
2021/06/14 01:42:51;;;;;;;17.42;7.43;;;;;;;12.50;77.02;101715.28;5069126;28;20576;-67
2021/06/14 01:45:21;;;;;;;16.60;8.32;;;;;;;12.65;76.42;101714.50;5083062;28;20059;-66
2021/06/14 01:47:49;;;;;;;14.40;7.45;;;;;;;12.67;76.30;101702.09;5088076;28;20048;-67
2021/06/14 01:50:17;;;;;;;15.25;7.55;;;;;;;12.47;77.04;101711.00;5052336;28;20066;-67
2021/06/14 01:52:45;;;;;;;13.50;6.78;;;;;;;12.34;77.21;101702.84;5054572;28;20580;-66
2021/06/14 01:55:14;;;;;;;15.25;7.30;;;;;;;12.45;76.81;101704.94;5093130;28;20090;-67
2021/06/14 01:57:42;;;;;;;15.88;7.82;;;;;;;12.39;76.97;101703.47;5069795;28;20187;-68
2021/06/14 02:00:10;;;;;;;16.33;8.38;;;;;;;12.51;76.75;101701.13;5071268;28;20044;-67
2021/06/14 02:02:38;;;;;;;12.68;7.25;;;;;;;12.32;77.58;101698.56;5086799;28;20504;-67
2021/06/14 02:05:06;;;;;;;20.52;8.05;;;;;;;12.26;77.89;101691.81;5069325;28;20045;-66
2021/06/14 02:07:34;;;;;;;14.25;7.03;;;;;;;12.29;78.14;101694.31;5087088;28;20063;-67
2021/06/14 02:10:05;;;;;;;15.40;7.07;;;;;;;12.19;78.40;101694.81;5073297;28;20059;-68
2021/06/14 02:12:32;;;;;;;19.48;7.40;;;;;;;12.34;77.95;101691.44;5069525;28;20055;-67
2021/06/14 02:15:01;;;;;;;12.90;7.70;;;;;;;12.09;78.53;101697.91;5091681;28;20368;-67
2021/06/14 02:17:31;;;;;;;15.43;6.85;;;;;;;12.10;78.89;101694.31;5098937;28;20052;-66
2021/06/14 02:19:58;;;;;;;13.93;6.80;;;;;;;12.12;78.81;101692.47;5071908;28;20051;-68
2021/06/14 02:22:27;;;;;;;18.77;7.35;;;;;;;12.01;78.71;101696.53;5087350;28;20147;-66
2021/06/14 02:24:54;;;;;;;14.82;7.05;;;;;;;11.79;79.67;101697.53;5090958;28;20097;-67
2021/06/14 02:27:22;;;;;;;14.82;7.07;;;;;;;12.06;79.01;101698.03;5099517;28;20054;-68
2021/06/14 02:29:49;;;;;;;14.85;6.40;;;;;;;12.16;78.66;101690.56;5088636;28;20064;-68
2021/06/14 02:32:17;;;;;;;13.80;7.30;;;;;;;11.93;79.79;101696.06;5086486;28;20143;-67
2021/06/14 02:34:44;;;;;;;19.00;7.68;;;;;;;11.75;80.55;101701.25;5098170;28;20098;-67
2021/06/14 02:37:12;;;;;;;18.10;8.20;;;;;;;11.91;80.45;101689.06;5085016;28;20131;-68
2021/06/14 02:39:40;;;;;;;16.67;7.50;;;;;;;11.99;79.83;101695.78;5067888;28;20646;-66
2021/06/14 02:42:08;;;;;;;18.27;8.32;;;;;;;12.07;79.67;101686.56;5086207;28;20044;-67
2021/06/14 02:44:36;;;;;;;20.98;8.45;;;;;;;12.07;79.49;101694.47;5060412;28;20040;-67
2021/06/14 02:47:06;;;;;;;14.20;6.60;;;;;;;11.95;79.96;101692.44;5051350;28;20036;-68
2021/06/14 02:49:34;;;;;;;16.40;7.63;;;;;;;12.29;79.11;101680.22;5067789;28;20538;-67
2021/06/14 02:52:04;;;;;;;22.85;8.60;;;;;;;12.38;78.36;101683.28;5087514;28;20053;-67
2021/06/14 02:54:39;;;;;;;22.52;8.27;;;;;;;12.11;79.19;101680.22;5079976;28;20052;-66
2021/06/14 02:57:09;;;;;;;22.40;7.97;;;;;;;11.94;80.27;101676.69;5084616;28;20059;-68
2021/06/14 02:59:39;;;;;;;17.55;7.60;;;;;;;11.84;80.99;101676.22;5085009;28;20063;-67
2021/06/14 03:02:08;;;;;;;14.23;7.18;;;;;;;12.20;80.23;101672.75;5086605;28;20407;-67
2021/06/14 03:04:35;;;;;;;20.13;7.55;;;;;;;12.36;79.16;101668.44;5092611;28;20063;-67
2021/06/14 03:07:03;;;;;;;14.80;7.53;;;;;;;12.48;78.31;101666.97;5086227;28;20052;-67
2021/06/14 03:09:31;;;;;;;17.98;6.72;;;;;;;12.29;79.09;101672.28;5087540;28;20052;-67
2021/06/14 03:11:59;;;;;;;13.20;6.90;;;;;;;12.39;79.25;101676.22;5060468;28;20515;-67
2021/06/14 03:14:26;;;;;;;14.43;6.55;;;;;;;12.55;78.54;101671.84;5071722;28;20135;-66
2021/06/14 03:16:54;;;;;;;18.40;7.78;;;;;;;12.63;77.74;101669.69;5085905;28;20040;-67
2021/06/14 03:19:23;;;;;;;15.00;7.22;;;;;;;12.62;77.82;101673.28;5093671;28;20459;-67
2021/06/14 03:21:51;;;;;;;16.63;7.22;;;;;;;12.69;77.86;101673.78;5060247;28;20507;-67
2021/06/14 03:24:18;;;;;;;17.67;7.75;;;;;;;12.72;77.47;101672.78;5087514;28;20036;-68
2021/06/14 03:26:47;;;;;;;18.70;7.68;;;;;;;12.82;77.33;101664.31;5084432;28;20063;-67
2021/06/14 03:29:20;;;;;;;22.83;7.22;;;;;;;12.82;77.71;101664.31;5091188;28;20188;-67
2021/06/14 03:31:48;;;;;;;16.15;8.50;;;;;;;12.74;77.71;101655.91;5092261;28;20081;-66
2021/06/14 03:34:17;;;;;;;16.50;8.27;;;;;;;12.82;77.46;101660.81;5067290;28;20040;-66
2021/06/14 03:36:46;;;;;;;17.85;7.55;;;;;;;13.00;77.34;101659.00;5087436;28;20032;-67
2021/06/14 03:39:16;;;;;;;14.45;7.57;;;;;;;12.89;77.90;101660.44;5089214;28;20056;-68
2021/06/14 03:41:48;;;;;;;17.00;6.57;;;;;;;12.93;77.39;101659.34;5066958;28;20098;-67
2021/06/14 03:44:16;;;;;;;19.52;7.63;;;;;;;12.92;78.02;101665.56;5071466;28;20040;-68
2021/06/14 03:46:44;;;;;;;14.88;6.57;;;;;;;13.02;77.27;101662.44;5090763;28;20048;-66
2021/06/14 03:49:12;;;;;;;17.17;7.85;;;;;;;13.25;76.35;101661.25;5081323;28;20067;-67
2021/06/14 03:51:39;;;;;;;19.30;7.78;;;;;;;13.39;75.73;101659.56;5083988;28;20051;-68
2021/06/14 03:54:06;;;;;;;25.58;7.80;;;;;;;13.66;74.92;101661.63;5099396;28;20104;-67
2021/06/14 03:56:35;;;;;;;17.90;6.72;;;;;;;13.65;74.72;101668.72;5085189;28;20044;-67
2021/06/14 03:59:03;;;;;;;15.40;6.75;;;;;;;13.63;75.18;101660.00;5086559;28;20048;-67
2021/06/14 04:01:31;;;;;;;12.73;7.10;;;;;;;13.69;75.01;101666.75;5083363;28;20059;-67
2021/06/14 04:06:29;;;;;;;11.27;6.93;;;;;;;13.81;74.78;101666.06;5088565;28;20525;-68
2021/06/14 04:08:56;;;;;;;16.40;7.72;;;;;;;13.91;74.48;101666.41;5090903;28;20044;-67
2021/06/14 04:11:24;;;;;;;30.48;7.72;;;;;;;14.06;73.65;101667.34;5089293;28;20119;-65
2021/06/14 04:13:52;;;;;;;17.75;7.63;;;;;;;14.15;73.61;101672.97;5078301;28;20051;-67
2021/06/14 04:16:20;;;;;;;22.00;7.93;;;;;;;14.29;73.57;101663.38;5083460;28;20085;-67
2021/06/14 04:18:49;;;;;;;14.23;7.32;;;;;;;14.43;73.22;101666.06;5094316;28;20062;-67
2021/06/14 04:21:16;;;;;;;13.77;7.22;;;;;;;14.72;72.12;101653.75;5090538;28;20044;-68
2021/06/14 04:23:44;;;;;;;25.48;7.82;;;;;;;15.41;70.18;101652.19;5072662;28;20052;-67
2021/06/14 04:26:12;;;;;;;14.50;6.45;;;;;;;17.10;66.59;101649.88;5087000;28;20558;-67
2021/06/14 04:28:39;;;;;;;13.55;6.38;;;;;;;18.91;60.08;101642.72;5064622;28;20048;-67
2021/06/14 04:31:07;;;;;;;13.90;6.55;;;;;;;20.14;54.08;101641.75;5097301;28;20056;-67
2021/06/14 04:33:35;;;;;;;13.70;6.55;;;;;;;22.11;48.84;101632.53;5095688;28;20044;-67
2021/06/14 04:36:04;;;;;;;14.50;6.60;;;;;;;23.16;44.66;101634.38;5067526;28;20040;-67
2021/06/14 04:38:32;;;;;;;14.52;7.18;;;;;;;24.32;43.07;101636.34;5080708;28;20044;-68
2021/06/14 04:40:59;;;;;;;15.75;7.70;;;;;;;24.81;40.97;101633.16;5075621;28;20051;-66
2021/06/14 04:43:27;;;;;;;19.50;7.22;;;;;;;25.92;38.83;101628.59;5090354;28;20051;-66
2021/06/14 04:45:54;;;;;;;11.73;6.15;;;;;;;25.20;38.89;101631.72;5087691;28;20147;-66
2021/06/14 04:48:22;;;;;;;12.45;7.35;;;;;;;25.91;38.11;101629.63;5081437;28;20461;-66
2021/06/14 04:50:49;;;;;;;11.95;6.35;;;;;;;26.88;35.48;101636.00;5095029;28;20326;-67
2021/06/14 04:53:17;;;;;;;13.27;7.13;;;;;;;27.44;34.14;101628.75;5072630;28;20094;-67
2021/06/14 04:55:44;;;;;;;15.20;6.88;;;;;;;27.04;34.40;101629.72;5088203;28;20052;-66
2021/06/14 04:58:12;;;;;;;15.05;7.00;;;;;;;27.24;33.93;101631.88;5102677;28;20043;-67
2021/06/14 05:00:39;;;;;;;11.88;5.80;;;;;;;27.36;33.23;101631.47;5093016;28;20074;-69
2021/06/14 05:03:07;;;;;;;11.65;6.63;;;;;;;27.52;32.79;101631.41;5070946;28;20051;-66
2021/06/14 05:05:34;;;;;;;15.48;7.38;;;;;;;27.89;32.11;101630.72;5088796;28;20070;-67
2021/06/14 05:08:02;;;;;;;14.82;6.15;;;;;;;27.73;32.24;101637.06;5098194;28;20051;-66
2021/06/14 05:10:30;;;;;;;15.32;6.00;;;;;;;27.72;32.21;101643.50;5099934;28;20557;-67
2021/06/14 05:12:58;;;;;;;15.45;6.63;;;;;;;28.06;30.98;101653.09;5092089;28;20056;-67
2021/06/14 05:15:25;;;;;;;13.85;6.15;;;;;;;28.69;29.80;101651.91;5089193;28;20040;-67
2021/06/14 05:17:53;;;;;;;9.82;5.80;;;;;;;28.81;29.51;101654.16;5069500;28;20052;-66
2021/06/14 05:20:20;;;;;;;11.45;6.30;;;;;;;28.90;29.21;101648.44;5082153;28;20054;-66
2021/06/14 05:22:48;;;;;;;12.27;6.25;;;;;;;29.23;28.60;101645.41;5088890;28;20044;-67
2021/06/14 05:25:16;;;;;;;10.35;5.25;;;;;;;29.25;28.58;101646.88;5070146;28;20044;-67
2021/06/14 05:27:43;;;;;;;9.30;6.05;;;;;;;29.83;27.52;101643.44;5067794;28;20511;-67
2021/06/14 05:30:11;;;;;;;11.20;6.43;;;;;;;29.28;27.96;101648.41;5069041;28;20068;-67
2021/06/14 05:32:39;;;;;;;11.30;6.03;;;;;;;29.54;27.73;101653.31;5091945;28;20121;-67
2021/06/14 05:35:08;;;;;;;13.27;5.82;;;;;;;29.90;27.51;101647.03;5099832;28;20054;-67
2021/06/14 05:37:36;;;;;;;14.07;5.82;;;;;;;30.15;27.15;101648.38;5092964;28;20048;-68
2021/06/14 05:40:05;;;;;;;14.82;6.53;;;;;;;30.00;27.31;101655.75;5086994;28;20546;-67
2021/06/14 05:42:33;;;;;;;13.57;6.00;;;;;;;30.36;26.78;101654.84;5087038;28;20058;-67
2021/06/14 05:45:02;;;;;;;16.67;6.60;;;;;;;30.27;26.99;101654.97;5087796;28;20060;-66
2021/06/14 05:47:29;;;;;;;10.60;5.93;;;;;;;30.10;27.32;101655.41;5088068;28;20097;-66
2021/06/14 05:49:56;;;;;;;13.68;6.57;;;;;;;30.76;26.23;101648.72;5102902;28;20044;-67
2021/06/14 05:52:24;;;;;;;12.57;5.10;;;;;;;31.18;25.12;101657.75;5069709;28;20066;-66
2021/06/14 05:54:52;;;;;;;13.80;6.07;;;;;;;30.21;26.52;101660.34;5087331;28;20054;-67
2021/06/14 05:57:19;;;;;;;8.60;5.53;;;;;;;31.06;26.00;101667.50;5081729;28;20044;-67
2021/06/14 05:59:46;;;;;;;11.27;6.18;;;;;;;29.93;27.21;101668.38;5091778;28;20134;-67
2021/06/14 06:02:14;;;;;;;10.68;4.90;;;;;;;30.51;26.78;101659.16;5086983;28;20044;-67
2021/06/14 06:04:41;;;;;;;12.50;6.10;;;;;;;30.54;26.71;101659.81;5090811;28;20064;-68
2021/06/14 06:07:09;;;;;;;9.60;5.53;;;;;;;30.49;26.95;101665.84;5087749;28;20565;-67
2021/06/14 06:09:36;;;;;;;8.73;4.65;;;;;;;30.59;26.16;101655.47;5085740;28;20497;-66
2021/06/14 06:12:04;;;;;;;11.57;5.22;;;;;;;30.90;25.52;101665.13;5086786;28;20722;-67
2021/06/14 06:14:31;;;;;;;9.48;5.20;;;;;;;30.97;26.15;101672.25;5094394;28;20558;-69
2021/06/14 06:16:59;;;;;;;11.23;5.30;;;;;;;30.62;26.46;101660.50;5094648;28;20040;-69
2021/06/14 06:19:28;;;;;;;13.40;5.25;;;;;;;30.83;26.25;101670.50;5086430;28;20044;-67
2021/06/14 06:21:55;;;;;;;12.90;6.18;;;;;;;30.94;25.81;101666.41;5086568;28;20117;-67
2021/06/14 06:24:23;;;;;;;7.68;4.53;;;;;;;31.18;25.92;101659.63;5053181;28;20046;-67
2021/06/14 06:26:50;;;;;;;14.80;5.35;;;;;;;31.10;25.53;101676.94;5095482;28;20047;-67
2021/06/14 06:29:18;;;;;;;10.63;4.68;;;;;;;31.54;25.50;101666.72;5098638;28;20051;-66
2021/06/14 06:31:45;;;;;;;11.18;5.07;;;;;;;31.51;25.01;101665.25;5084920;28;20055;-67
2021/06/14 06:34:13;;;;;;;10.77;4.63;;;;;;;32.28;24.75;101670.25;5090509;28;20059;-68
2021/06/14 06:36:42;;;;;;;11.98;5.05;;;;;;;31.40;25.55;101657.69;5072967;28;20044;-67
2021/06/14 06:39:10;;;;;;;12.23;4.70;;;;;;;30.82;26.01;101657.94;5086721;28;20113;-67
2021/06/14 06:41:37;;;;;;;8.30;4.70;;;;;;;31.10;25.88;101648.91;5066009;28;20125;-67
2021/06/14 06:44:05;;;;;;;10.63;5.97;;;;;;;31.61;24.92;101652.13;5096495;28;20171;-68
2021/06/14 06:46:32;;;;;;;10.93;4.72;;;;;;;31.44;25.45;101650.78;5091797;28;20512;-68
2021/06/14 06:48:59;;;;;;;14.13;5.47;;;;;;;33.18;23.02;101648.81;5087322;28;20443;-68
2021/06/14 06:51:27;;;;;;;11.20;5.00;;;;;;;32.49;23.71;101647.47;5083723;28;20051;-67
2021/06/14 06:54:13;;;;;;;12.73;6.05;;;;;;;32.53;24.06;101647.03;5075415;28;20504;-66
2021/06/14 06:56:47;;;;;;;16.55;5.28;;;;;;;32.60;23.70;101643.25;5065036;28;20132;-66
2021/06/14 06:59:15;;;;;;;10.48;4.88;;;;;;;32.50;24.14;101643.66;5087137;28;20085;-67
2021/06/14 07:01:44;;;;;;;10.50;5.68;;;;;;;31.82;24.45;101631.22;5083524;28;20056;-70
2021/06/14 07:04:12;;;;;;;15.80;5.82;;;;;;;32.77;23.47;101635.47;5087365;28;20074;-67
2021/06/14 07:06:39;;;;;;;12.32;5.43;;;;;;;31.69;24.65;101635.56;5060209;28;20060;-67
2021/06/14 07:09:07;;;;;;;14.07;5.15;;;;;;;32.50;23.54;101632.78;5089941;28;20519;-68
2021/06/14 07:11:35;;;;;;;12.68;4.72;;;;;;;33.38;22.82;101626.06;5084957;28;20055;-70
2021/06/14 07:14:03;;;;;;;12.02;5.13;;;;;;;32.57;23.83;101627.31;5097799;28;20573;-67
2021/06/14 07:16:30;;;;;;;9.70;5.20;;;;;;;33.75;22.37;101622.53;5084529;28;20109;-67
2021/06/14 07:19:00;;;;;;;10.43;5.00;;;;;;;33.72;22.50;101620.22;5092477;28;20050;-66
2021/06/14 07:21:28;;;;;;;12.82;5.15;;;;;;;33.50;22.62;101621.63;5086724;28;20146;-69
2021/06/14 07:23:55;;;;;;;12.55;5.35;;;;;;;33.56;22.31;101620.75;5086401;28;20102;-67
2021/06/14 07:26:24;;;;;;;9.70;4.22;;;;;;;34.01;21.84;101624.28;5083625;28;20062;-66
2021/06/14 07:28:52;;;;;;;9.93;4.35;;;;;;;33.61;22.13;101618.22;5079523;28;20572;-66
2021/06/14 07:31:19;;;;;;;13.98;4.65;;;;;;;33.98;21.85;101619.25;5092005;28;20267;-67
2021/06/14 07:33:48;;;;;;;9.38;4.55;;;;;;;33.66;22.16;101617.56;5087134;28;20052;-68
2021/06/14 07:36:16;;;;;;;12.80;5.00;;;;;;;33.72;22.02;101617.50;5084570;28;20527;-66
2021/06/14 07:38:44;;;;;;;17.63;5.10;;;;;;;34.04;21.56;101625.72;5088213;28;20044;-68
2021/06/14 07:41:11;;;;;;;11.60;4.55;;;;;;;34.40;21.36;101618.69;5080287;28;20653;-66
2021/06/14 07:43:39;;;;;;;9.63;5.18;;;;;;;34.28;21.38;101621.34;5100820;28;20067;-67
2021/06/14 07:46:06;;;;;;;10.88;4.78;;;;;;;34.62;21.00;101622.72;5057134;28;20048;-68
2021/06/14 07:48:35;;;;;;;11.85;4.68;;;;;;;34.87;20.58;101613.63;5078674;28;20054;-68
2021/06/14 07:51:04;;;;;;;10.60;5.60;;;;;;;32.89;22.26;101622.03;5062421;28;20049;-69
2021/06/14 07:53:32;;;;;;;12.27;5.30;;;;;;;33.98;21.56;101608.31;5084421;28;20062;-68
2021/06/14 07:55:59;;;;;;;8.68;4.50;;;;;;;34.54;21.20;101608.50;5072916;28;20147;-68
2021/06/14 07:58:27;;;;;;;12.02;5.47;;;;;;;34.13;21.35;101596.22;5092152;28;20047;-68
2021/06/14 08:00:55;;;;;;;9.90;5.25;;;;;;;33.84;21.70;101606.72;5065867;28;20380;-69
2021/06/14 08:03:24;;;;;;;11.32;5.78;;;;;;;34.47;21.04;101608.56;5069701;28;20058;-68
2021/06/14 08:05:52;;;;;;;7.28;4.55;;;;;;;33.88;21.50;101612.59;5093039;28;20586;-66
2021/06/14 08:08:19;;;;;;;10.38;4.97;;;;;;;34.83;20.38;101615.16;5059686;28;20515;-69
2021/06/14 08:10:48;;;;;;;13.40;4.32;;;;;;;33.85;22.06;101607.56;5083465;28;20059;-65
2021/06/14 08:13:17;;;;;;;11.77;4.75;;;;;;;34.25;21.40;101591.72;5069342;28;20510;-68
2021/06/14 08:15:44;;;;;;;14.77;4.78;;;;;;;33.56;21.76;101596.19;5084271;28;20446;-68
2021/06/14 08:18:25;;;;;;;11.90;5.05;;;;;;;33.51;21.90;101587.81;5096202;28;20058;-73
2021/06/14 08:26:26;;;;;;;14.57;4.95;;;;;;;33.03;23.04;101596.41;5085759;28;20101;-73
2021/06/14 08:28:55;;;;;;;12.70;4.18;;;;;;;32.30;23.78;101591.06;5090468;28;20047;-68
2021/06/14 08:31:24;;;;;;;11.35;4.65;;;;;;;30.46;26.36;101584.69;5086873;28;20047;-67
2021/06/14 08:33:52;;;;;;;10.50;4.72;;;;;;;28.96;28.42;101582.69;5092031;28;20056;-68
2021/06/14 08:36:20;;;;;;;10.95;4.47;;;;;;;28.26;29.59;101583.03;5066080;28;20112;-67
2021/06/14 08:38:48;;;;;;;20.10;6.43;;;;;;;27.12;31.32;101581.91;5093842;28;20062;-66
2021/06/14 08:41:17;;;;;;;14.10;4.65;;;;;;;26.59;32.61;101580.69;5065008;28;20130;-68
2021/06/14 08:43:48;;;;;;;14.77;4.80;;;;;;;26.26;33.29;101579.88;5087043;28;20140;-69
2021/06/14 08:46:16;;;;;;;10.00;4.50;;;;;;;26.03;33.91;101566.22;5089654;28;20401;-70
2021/06/14 08:48:44;;;;;;;10.98;4.25;;;;;;;25.87;34.54;101568.91;5090984;28;20052;-68
2021/06/14 08:51:13;;;;;;;13.60;4.13;;;;;;;25.48;34.00;101562.25;5083416;28;20055;-68
2021/06/14 08:53:41;;;;;;;10.13;4.07;;;;;;;25.30;35.19;101564.22;5088747;28;20321;-70
2021/06/14 08:56:08;;;;;;;10.85;4.47;;;;;;;25.10;35.17;101558.25;5089905;28;20622;-66
2021/06/14 08:58:36;;;;;;;10.02;4.10;;;;;;;24.89;35.30;101558.63;5086342;28;20052;-68
2021/06/14 09:01:04;;;;;;;11.75;3.90;;;;;;;25.01;34.83;101567.28;5082900;28;20097;-68
2021/06/14 09:03:32;;;;;;;9.07;3.92;;;;;;;24.32;35.77;101560.13;5093357;28;20051;-68
2021/06/14 09:05:59;;;;;;;9.73;3.33;;;;;;;23.46;37.15;101563.34;5093002;28;20056;-68
2021/06/14 09:08:27;;;;;;;10.52;4.57;;;;;;;23.58;37.57;101556.75;5090056;28;20059;-67
2021/06/14 09:10:55;;;;;;;9.93;4.03;;;;;;;24.21;36.86;101562.06;5089285;28;20388;-69
2021/06/14 09:13:27;;;;;;;10.88;3.92;;;;;;;24.01;37.03;101549.81;5097006;28;20054;-67
2021/06/14 09:16:04;;;;;;;6.32;3.53;;;;;;;23.75;36.67;101547.06;5079450;28;20415;-67
2021/06/14 09:18:32;;;;;;;8.35;3.90;;;;;;;23.65;37.38;101538.22;5089975;28;20051;-69
2021/06/14 09:21:05;;;;;;;13.73;3.70;;;;;;;23.85;37.38;101538.91;5100630;28;20055;-71
2021/06/14 09:23:46;;;;;;;11.40;4.20;;;;;;;24.21;36.36;101527.09;5087044;28;20146;-67
2021/06/14 09:26:33;;;;;;;7.43;2.92;;;;;;;24.31;35.03;101523.44;5086333;28;20059;-68
2021/06/14 09:29:09;;;;;;;9.60;3.60;;;;;;;23.83;35.86;101522.09;5089731;28;20084;-68
2021/06/14 09:31:49;;;;;;;7.43;4.13;;;;;;;23.39;36.65;101521.97;5084431;28;20491;-69
2021/06/14 09:34:18;;;;;;;7.32;3.38;;;;;;;23.15;36.44;101520.72;5088709;28;20282;-67
2021/06/14 09:36:56;;;;;;;7.32;3.13;;;;;;;22.97;36.80;101511.78;5096490;28;20419;-66
2021/06/14 09:39:23;;;;;;;7.10;2.85;;;;;;;22.75;36.69;101508.44;5071212;28;20044;-66
2021/06/14 09:41:52;;;;;;;6.18;2.92;;;;;;;23.12;35.92;101510.25;5087465;28;20121;-66
2021/06/14 09:44:32;;;;;;;9.27;3.13;;;;;;;23.25;35.91;101505.38;5097031;28;20044;-68
2021/06/14 09:47:05;;;;;;;6.10;3.00;;;;;;;23.40;36.37;101508.38;5066451;28;20052;-67
2021/06/14 09:49:33;;;;;;;9.63;3.20;;;;;;;23.81;35.70;101507.94;5069574;28;20064;-68
2021/06/14 09:52:03;;;;;;;10.27;2.75;;;;;;;24.26;34.87;101495.16;5087533;28;20556;-67
2021/06/14 09:54:32;;;;;;;7.32;3.50;;;;;;;24.62;34.13;101489.66;5069371;28;20047;-68
2021/06/14 09:57:01;;;;;;;9.27;3.42;;;;;;;24.38;34.64;101486.88;5087496;28;20048;-69
2021/06/14 09:59:39;;;;;;;9.80;3.67;;;;;;;23.94;35.44;101487.72;5087999;28;20515;-68
2021/06/14 10:02:10;;;;;;;9.95;3.20;;;;;;;24.19;34.84;101475.28;5076548;28;20054;-68
2021/06/14 10:04:38;;;;;;;13.68;3.00;;;;;;;24.12;34.18;101474.22;5091275;28;20054;-68
2021/06/14 10:07:13;;;;;;;8.02;3.80;;;;;;;23.79;34.99;101483.06;5052275;28;20432;-68
2021/06/14 10:09:46;;;;;;;8.45;3.13;;;;;;;24.09;34.15;101471.00;5067929;28;20044;-68
2021/06/14 10:12:21;;;;;;;8.98;2.95;;;;;;;24.28;33.99;101472.66;5090342;28;20043;-67
2021/06/14 10:14:59;;;;;;;17.80;3.50;;;;;;;23.86;34.64;101463.44;5085450;28;20056;-66
2021/06/14 10:17:41;;;;;;;7.38;3.03;;;;;;;24.08;34.89;101467.47;5086817;28;20442;-67
2021/06/14 10:20:37;;;;;;;10.73;3.17;;;;;;;24.69;34.62;101453.03;5093179;28;20035;-69
2021/06/14 10:23:04;;;;;;;10.32;2.88;;;;;;;24.64;34.61;101458.06;5084021;28;20107;-68
2021/06/14 10:25:35;;;;;;;6.22;3.35;;;;;;;24.00;34.78;101453.94;5069004;28;20054;-68
2021/06/14 10:28:05;;;;;;;13.32;3.42;;;;;;;24.45;34.88;101445.69;5070138;28;20048;-69
2021/06/14 10:30:33;;;;;;;11.32;2.85;;;;;;;24.38;34.81;101443.81;5089070;28;20039;-68
2021/06/14 10:33:02;;;;;;;6.60;2.72;;;;;;;24.40;34.80;101441.78;5067780;28;20066;-68
2021/06/14 10:35:30;;;;;;;7.43;2.70;;;;;;;24.91;34.07;101442.69;5089984;28;20039;-68
2021/06/14 10:38:01;;;;;;;7.32;2.80;;;;;;;25.10;32.99;101445.09;5096338;28;20446;-66
2021/06/14 10:40:28;;;;;;;7.47;3.00;;;;;;;25.07;33.09;101437.31;5087072;28;20047;-68
2021/06/14 10:42:57;;;;;;;8.32;3.08;;;;;;;25.09;33.13;101429.09;5086196;28;20060;-67
2021/06/14 10:45:28;;;;;;;8.63;3.05;;;;;;;24.61;33.65;101428.75;5087735;28;20053;-67
2021/06/14 10:47:56;;;;;;;8.77;2.90;;;;;;;24.34;34.19;101420.88;5089817;28;20051;-68
2021/06/14 10:50:26;;;;;;;9.50;3.45;;;;;;;24.50;34.05;101418.31;5070146;28;20450;-67
2021/06/14 10:52:55;;;;;;;8.70;3.15;;;;;;;24.72;33.83;101408.75;5069814;28;20070;-68
2021/06/14 10:55:31;;;;;;;9.25;2.97;;;;;;;24.82;33.52;101414.03;5087143;28;20048;-67
2021/06/14 10:58:03;;;;;;;4.63;2.58;;;;;;;24.18;34.46;101416.25;5079642;28;20064;-67
2021/06/14 11:00:34;;;;;;;6.88;3.47;;;;;;;24.23;33.73;101412.09;5066890;28;20110;-68
2021/06/14 11:03:06;;;;;;;8.05;3.20;;;;;;;24.06;34.04;101406.78;5085509;28;20036;-68
2021/06/14 11:05:39;;;;;;;4.28;2.58;;;;;;;24.24;34.00;101396.78;5078904;28;20056;-66
2021/06/14 11:08:16;;;;;;;5.95;3.13;;;;;;;24.64;33.40;101390.75;5056106;28;20044;-67
2021/06/14 11:10:50;;;;;;;7.95;3.15;;;;;;;24.95;32.93;101384.78;5084445;28;20146;-67
2021/06/14 11:13:18;;;;;;;7.30;3.75;;;;;;;25.01;33.75;101389.50;5099049;28;20508;-66
2021/06/14 11:15:49;;;;;;;6.28;3.08;;;;;;;25.29;32.88;101384.66;5084512;28;20078;-67
2021/06/14 11:18:27;;;;;;;7.75;2.50;;;;;;;25.21;32.41;101376.56;5087328;28;20047;-68
2021/06/14 11:21:09;;;;;;;7.00;2.95;;;;;;;25.24;32.53;101369.00;5085841;28;20097;-67
2021/06/14 11:23:38;;;;;;;8.18;3.08;;;;;;;25.32;32.45;101368.16;5087944;28;20044;-69
2021/06/14 11:26:08;;;;;;;7.35;2.80;;;;;;;24.83;33.12;101370.78;5084389;28;20143;-68
2021/06/14 11:28:40;;;;;;;7.93;3.05;;;;;;;24.62;33.45;101371.22;5095778;28;20484;-67
2021/06/14 11:31:22;;;;;;;4.70;2.35;;;;;;;24.92;33.47;101374.31;5087863;28;20428;-67
2021/06/14 11:33:51;;;;;;;5.88;2.65;;;;;;;25.19;32.18;101357.03;5089690;28;20050;-67
2021/06/14 11:36:30;;;;;;;5.88;2.58;;;;;;;24.53;32.53;101361.44;5064837;28;20047;-68
2021/06/14 11:38:59;;;;;;;9.32;2.88;;;;;;;24.48;32.93;101348.47;5072682;28;20060;-67